createdAt,value
2023-02-03T00:00:57.904Z,2.01
2023-02-03T00:04:00.322Z,2.11
2023-02-03T00:07:02.801Z,2.24
2023-02-03T00:10:07.054Z,2.15
2023-02-03T00:13:09.531Z,2.16
2023-02-03T00:16:11.908Z,2.28
2023-02-03T00:19:15.948Z,2.26
2023-02-03T00:22:19.750Z,2.03
2023-02-03T00:25:22.093Z,2.21
2023-02-03T00:28:28.254Z,2.04
2023-02-03T00:31:30.920Z,2.00
2023-02-03T00:34:34.549Z,1.71
2023-02-03T00:37:36.870Z,1.94
2023-02-03T00:40:39.613Z,1.47
2023-02-03T00:43:42.117Z,1.56
2023-02-03T00:46:44.526Z,1.34
2023-02-03T00:49:47.697Z,1.46
2023-02-03T00:52:50.105Z,1.32
2023-02-03T00:55:52.551Z,1.27
2023-02-03T00:58:55.033Z,1.31
2023-02-03T01:01:57.522Z,1.32
2023-02-03T01:05:00.450Z,1.26
2023-02-03T01:08:03.339Z,1.27
2023-02-03T01:11:07.751Z,1.15
2023-02-03T01:14:10.507Z,1.10
2023-02-03T01:17:12.876Z,0.86
2023-02-03T01:20:16.951Z,0.88
2023-02-03T01:23:19.360Z,0.84
2023-02-03T01:26:23.481Z,0.71
2023-02-03T01:29:26.433Z,0.71
2023-02-03T01:32:28.885Z,0.92
2023-02-03T01:35:35.057Z,0.64
2023-02-03T01:38:38.953Z,0.75
2023-02-03T01:41:41.720Z,0.74
2023-02-03T01:44:45.580Z,0.69
2023-02-03T01:47:58.678Z,0.68
2023-02-03T01:51:02.900Z,0.85
2023-02-03T01:54:07.354Z,0.49
2023-02-03T01:57:43.236Z,0.57
2023-02-03T02:00:47.212Z,0.47
2023-02-03T02:03:54.369Z,0.54
2023-02-03T02:06:58.264Z,0.57
2023-02-03T02:10:01.334Z,0.38
2023-02-03T02:13:05.430Z,0.43
2023-02-03T02:16:18.028Z,0.04
2023-02-03T02:20:20.773Z,0.40
2023-02-03T02:23:48.810Z,0.39
2023-02-03T02:27:00.689Z,0.35
2023-02-03T02:30:27.653Z,0.41
2023-02-03T02:33:42.898Z,0.32
2023-02-03T02:36:54.334Z,0.62
2023-02-03T02:40:01.865Z,0.82
2023-02-03T02:43:08.586Z,0.73
2023-02-03T02:46:16.213Z,0.60
2023-02-03T02:49:18.696Z,0.65
2023-02-03T02:52:24.410Z,0.25
2023-02-03T02:55:32.443Z,0.09
2023-02-03T02:58:41.071Z,-0.33
2023-02-03T03:01:43.540Z,-0.34
2023-02-03T03:04:49.863Z,-0.80
2023-02-03T03:08:02.723Z,-0.67
2023-02-03T03:11:05.743Z,-1.19
2023-02-03T03:14:09.968Z,-1.22
2023-02-03T03:17:19.354Z,-1.26
2023-02-03T03:20:26.012Z,-1.34
2023-02-03T03:23:32.165Z,-1.05
2023-02-03T03:26:54.546Z,-0.97
2023-02-03T03:30:02.201Z,-1.06
2023-02-03T03:33:07.572Z,-0.83
2023-02-03T03:36:19.232Z,-0.52
2023-02-03T03:39:50.746Z,-0.37
2023-02-03T03:42:58.930Z,-0.43
2023-02-03T03:46:12.479Z,-0.73
2023-02-03T03:49:18.463Z,-1.01
2023-02-03T03:52:26.679Z,-0.81
2023-02-03T03:55:34.142Z,-0.79
2023-02-03T03:58:40.255Z,-0.76
2023-02-03T04:01:43.116Z,-0.73
2023-02-03T04:04:47.711Z,-0.69
2023-02-03T04:07:50.093Z,-0.61
2023-02-03T04:10:52.549Z,-0.65
2023-02-03T04:13:54.945Z,-0.63
2023-02-03T04:16:58.714Z,-0.54
2023-02-03T04:20:01.145Z,-0.72
2023-02-03T04:23:03.523Z,-0.71
2023-02-03T04:26:05.932Z,-0.54
2023-02-03T04:29:08.415Z,-0.58
2023-02-03T04:32:10.904Z,-0.52
2023-02-03T04:35:13.805Z,-0.65
2023-02-03T04:38:16.139Z,-0.55
2023-02-03T04:41:18.690Z,-0.63
2023-02-03T04:44:21.129Z,-0.59
2023-02-03T04:47:23.565Z,-0.68
2023-02-03T04:50:26.177Z,-0.75
2023-02-03T04:53:29.145Z,-0.82
2023-02-03T04:56:31.452Z,-0.91
2023-02-03T04:59:34.064Z,-1.13
2023-02-03T05:02:36.431Z,-0.87
2023-02-03T05:05:38.909Z,-0.91
2023-02-03T05:08:41.268Z,-1.08
2023-02-03T05:11:43.677Z,-1.15
2023-02-03T05:14:46.062Z,-1.10
2023-02-03T05:17:48.432Z,-0.76
2023-02-03T05:20:50.839Z,-0.95
2023-02-03T05:23:53.284Z,-1.38
2023-02-03T05:26:55.667Z,-1.37
2023-02-03T05:29:58.075Z,-1.63
2023-02-03T05:33:00.512Z,-1.72
2023-02-03T05:36:02.976Z,-1.79
2023-02-03T05:39:05.372Z,-1.70
2023-02-03T05:42:07.932Z,-1.60
2023-02-03T05:45:10.489Z,-1.77
2023-02-03T05:48:12.903Z,-1.48
2023-02-03T05:51:15.277Z,-1.08
2023-02-03T05:54:17.636Z,-1.08
2023-02-03T05:57:19.961Z,-0.99
2023-02-03T06:00:24.881Z,-1.12
2023-02-03T06:03:27.456Z,-0.99
2023-02-03T06:06:33.949Z,-0.95
2023-02-03T06:09:36.379Z,-1.00
2023-02-03T06:12:39.145Z,-0.90
2023-02-03T06:15:42.152Z,-0.86
2023-02-03T06:18:44.508Z,-0.87
2023-02-03T06:21:46.912Z,-0.78
2023-02-03T06:24:49.819Z,-0.44
2023-02-03T06:27:52.269Z,-0.26
2023-02-03T06:30:54.695Z,-0.49
2023-02-03T06:33:57.411Z,-0.23
2023-02-03T06:36:59.861Z,0.03
2023-02-03T06:40:02.964Z,-0.05
2023-02-03T06:43:05.592Z,0.07
2023-02-03T06:46:08.024Z,0.47
2023-02-03T06:49:10.784Z,0.61
2023-02-03T06:52:13.325Z,0.72
2023-02-03T06:55:15.927Z,0.71
2023-02-03T06:58:18.296Z,0.97
2023-02-03T07:01:20.895Z,0.93
2023-02-03T07:04:23.816Z,0.72
2023-02-03T07:07:26.284Z,1.06
2023-02-03T07:10:28.933Z,1.18
2023-02-03T07:13:31.472Z,1.41
2023-02-03T07:16:34.348Z,1.28
2023-02-03T07:19:36.721Z,1.46
2023-02-03T07:22:42.030Z,1.76
2023-02-03T07:25:44.879Z,1.81
2023-02-03T07:28:47.403Z,1.78
2023-02-03T07:31:49.930Z,1.93
2023-02-03T07:34:52.445Z,2.16
2023-02-03T07:37:54.807Z,2.27
2023-02-03T07:40:57.475Z,2.31
2023-02-03T07:43:59.841Z,2.26
2023-02-03T07:47:02.629Z,2.40
2023-02-03T07:50:05.265Z,2.43
2023-02-03T07:53:11.173Z,2.54
2023-02-03T07:56:13.988Z,2.55
2023-02-03T07:59:17.421Z,2.57
2023-02-03T08:02:19.803Z,2.51
2023-02-03T08:05:22.350Z,2.42
2023-02-03T08:08:24.941Z,2.26
2023-02-03T08:11:27.465Z,2.31
2023-02-03T08:14:31.273Z,2.35
2023-02-03T08:17:33.817Z,2.37
2023-02-03T08:20:36.179Z,2.25
2023-02-03T08:23:38.812Z,2.23
2023-02-03T08:26:41.174Z,2.42
2023-02-03T08:29:44.557Z,2.53
2023-02-03T08:32:46.906Z,2.58
2023-02-03T08:35:50.429Z,2.61
2023-02-03T08:38:52.926Z,2.67
2023-02-03T08:41:55.249Z,2.98
2023-02-03T08:44:58.176Z,3.06
2023-02-03T08:48:00.687Z,3.39
2023-02-03T08:51:09.290Z,3.62
2023-02-03T08:54:12.089Z,3.56
2023-02-03T08:57:14.926Z,3.42
2023-02-03T09:00:17.658Z,3.29
2023-02-03T09:03:20.188Z,3.59
2023-02-03T09:06:24.656Z,3.75
2023-02-03T09:09:29.116Z,3.66
2023-02-03T09:12:31.584Z,3.70
2023-02-03T09:15:34.113Z,3.83
2023-02-03T09:18:36.453Z,3.73
2023-02-03T09:21:44.997Z,3.37
2023-02-03T09:24:51.340Z,3.29
2023-02-03T09:27:53.814Z,2.90
2023-02-03T09:31:03.482Z,3.32
2023-02-03T09:34:06.199Z,3.34
2023-02-03T09:37:09.003Z,3.37
2023-02-03T09:40:24.591Z,3.09
2023-02-03T09:43:47.632Z,3.54
2023-02-03T09:47:00.829Z,3.46
2023-02-03T09:50:07.647Z,3.95
2023-02-03T09:53:28.535Z,3.94
2023-02-03T09:56:34.511Z,3.92
2023-02-03T09:59:36.887Z,3.83
2023-02-03T10:02:50.655Z,3.90
2023-02-03T10:05:58.036Z,4.10
2023-02-03T10:09:21.617Z,4.15
2023-02-03T10:12:38.378Z,4.21
2023-02-03T10:15:52.919Z,4.42
2023-02-03T10:19:01.591Z,4.16
2023-02-03T10:22:08.253Z,4.33
2023-02-03T10:25:20.844Z,4.34
2023-02-03T10:28:29.949Z,4.47
2023-02-03T10:31:36.590Z,4.56
2023-02-03T10:34:39.867Z,3.87
2023-02-03T10:37:46.962Z,4.25
2023-02-03T10:40:49.430Z,3.97
2023-02-03T10:43:53.224Z,3.77
2023-02-03T10:46:55.586Z,3.43
2023-02-03T10:49:58.815Z,3.90
2023-02-03T10:53:35.897Z,3.60
2023-02-03T10:56:40.149Z,3.87
2023-02-03T10:59:45.242Z,3.70
2023-02-03T11:02:55.588Z,3.25
2023-02-03T11:06:06.816Z,2.95
2023-02-03T11:09:28.924Z,2.78
2023-02-03T11:12:31.426Z,2.83
2023-02-03T11:15:33.901Z,3.09
2023-02-03T11:18:44.015Z,3.02
2023-02-03T11:21:49.409Z,3.03
2023-02-03T11:24:52.124Z,3.00
2023-02-03T11:27:56.075Z,3.07
2023-02-03T11:30:59.072Z,3.20
2023-02-03T11:34:15.114Z,3.44
2023-02-03T11:37:27.091Z,3.50
2023-02-03T11:40:34.380Z,3.22
2023-02-03T11:43:36.901Z,3.28
2023-02-03T11:46:40.518Z,3.07
2023-02-03T11:50:07.726Z,2.92
2023-02-03T11:53:24.045Z,2.72
2023-02-03T11:56:45.339Z,2.87
2023-02-03T11:59:53.595Z,2.90
2023-02-03T12:03:14.635Z,2.86
2023-02-03T12:06:55.762Z,2.93
2023-02-03T12:10:07.813Z,2.99
2023-02-03T12:13:32.093Z,3.32
2023-02-03T12:17:06.460Z,3.48
2023-02-03T12:20:42.643Z,3.50
2023-02-03T12:24:25.410Z,3.49
2023-02-03T12:27:44.941Z,3.26
2023-02-03T12:30:57.524Z,3.54
2023-02-03T12:34:13.637Z,3.55
2023-02-03T12:37:43.606Z,3.57
2023-02-03T12:40:59.796Z,3.51
2023-02-03T12:44:11.183Z,3.18
2023-02-03T12:47:50.766Z,2.91
2023-02-03T12:51:03.501Z,2.73
2023-02-03T12:54:45.443Z,2.81
2023-02-03T12:58:00.142Z,2.68
2023-02-03T13:01:20.034Z,2.50
2023-02-03T13:04:41.392Z,2.58
2023-02-03T13:07:51.107Z,2.57
2023-02-03T13:11:05.561Z,2.54
2023-02-03T13:14:20.653Z,2.39
2023-02-03T13:17:46.707Z,2.55
2023-02-03T13:20:49.204Z,2.60
2023-02-03T13:23:51.885Z,2.56
2023-02-03T13:27:14.197Z,2.36
2023-02-03T13:30:44.059Z,2.50
2023-02-03T13:33:49.150Z,2.49
2023-02-03T13:37:13.010Z,2.38
2023-02-03T13:40:40.840Z,2.15
2023-02-03T13:43:51.355Z,1.85
2023-02-03T13:46:56.119Z,2.09
2023-02-03T13:50:04.106Z,1.96
2023-02-03T13:53:16.537Z,1.98
2023-02-03T13:56:24.306Z,1.69
2023-02-03T13:59:37.385Z,1.73
2023-02-03T14:02:53.129Z,1.51
2023-02-03T14:05:57.437Z,1.60
2023-02-03T14:09:00.249Z,1.17
2023-02-03T14:12:22.364Z,1.44
2023-02-03T14:15:33.539Z,1.21
2023-02-03T14:18:45.168Z,0.71
2023-02-03T14:22:17.404Z,1.11
2023-02-03T14:25:21.335Z,0.71
2023-02-03T14:28:31.166Z,0.92
2023-02-03T14:31:53.185Z,0.96
2023-02-03T14:34:55.652Z,0.83
2023-02-03T14:38:02.298Z,0.82
2023-02-03T14:41:06.087Z,0.67
2023-02-03T14:44:53.289Z,0.62
2023-02-03T14:48:32.525Z,0.48
2023-02-03T14:51:46.847Z,0.43
2023-02-03T14:54:55.726Z,0.26
2023-02-03T14:58:06.420Z,0.23
2023-02-03T15:01:37.970Z,0.25
2023-02-03T15:04:41.496Z,0.35
2023-02-03T15:07:47.584Z,0.55
2023-02-03T15:10:49.939Z,0.44
2023-02-03T15:13:52.861Z,0.24
2023-02-03T15:17:31.324Z,0.22
2023-02-03T15:20:44.055Z,0.15
2023-02-03T15:23:49.351Z,0.35
2023-02-03T15:26:54.974Z,0.39
2023-02-03T15:29:59.208Z,0.12
2023-02-03T15:33:07.587Z,0.04
2023-02-03T15:36:18.311Z,0.22
2023-02-03T15:39:29.957Z,0.30
2023-02-03T15:42:58.002Z,0.09
2023-02-03T15:46:07.476Z,0.20
2023-02-03T15:49:30.210Z,-0.09
2023-02-03T15:52:40.000Z,-0.05
2023-02-03T15:55:46.973Z,0.16
2023-02-03T15:58:50.498Z,0.21
2023-02-03T16:01:53.942Z,-0.04
2023-02-03T16:04:56.715Z,0.12
2023-02-03T16:08:36.779Z,0.24
2023-02-03T16:11:39.898Z,0.00
2023-02-03T16:14:43.277Z,-0.11
2023-02-03T16:17:45.673Z,0.31
2023-02-03T16:20:50.961Z,0.11
2023-02-03T16:23:53.661Z,0.25
2023-02-03T16:26:56.091Z,0.05
2023-02-03T16:30:22.840Z,0.21
2023-02-03T16:33:43.498Z,0.26
2023-02-03T16:37:04.790Z,0.20
2023-02-03T16:40:26.176Z,0.27
2023-02-03T16:43:46.853Z,0.29
2023-02-03T16:47:08.244Z,0.35
2023-02-03T16:50:58.184Z,0.46
2023-02-03T16:54:01.492Z,0.18
2023-02-03T16:57:03.957Z,0.42
2023-02-03T17:00:08.692Z,0.37
2023-02-03T17:03:14.685Z,0.18
2023-02-03T17:06:17.137Z,0.16
2023-02-03T17:09:22.192Z,0.33
2023-02-03T17:12:25.687Z,0.18
2023-02-03T17:15:28.360Z,0.31
2023-02-03T17:18:31.380Z,0.18
2023-02-03T17:21:34.032Z,0.12
2023-02-03T17:24:36.389Z,0.18
2023-02-03T17:27:38.897Z,0.35
2023-02-03T17:30:41.738Z,0.18
2023-02-03T17:33:44.912Z,-0.02
2023-02-03T17:36:47.327Z,0.31
2023-02-03T17:56:20.742Z,0.46
2023-02-03T17:59:23.508Z,0.46
2023-02-03T18:02:25.966Z,0.47
2023-02-03T18:05:29.040Z,0.20
2023-02-03T18:08:31.445Z,0.46
2023-02-03T18:11:36.145Z,0.54
2023-02-03T18:14:38.567Z,0.66
2023-02-03T18:17:40.944Z,0.66
2023-02-03T18:20:43.379Z,0.69
2023-02-03T18:23:46.549Z,0.61
2023-02-03T18:26:51.485Z,0.76
2023-02-03T18:29:54.158Z,0.61
2023-02-03T18:32:57.575Z,0.73
2023-02-03T18:36:01.759Z,0.76
2023-02-03T18:39:05.126Z,0.73
2023-02-03T18:42:07.931Z,0.59
2023-02-03T18:45:11.719Z,0.73
2023-02-03T18:48:14.378Z,0.82
2023-02-03T18:51:18.922Z,0.52
2023-02-03T18:54:21.526Z,1.05
2023-02-03T18:57:25.218Z,1.16
2023-02-03T19:00:28.012Z,1.17
2023-02-03T19:03:30.596Z,1.17
2023-02-03T19:06:34.745Z,1.07
2023-02-03T19:09:38.174Z,0.94
2023-02-03T19:12:40.993Z,1.09
2023-02-03T19:15:43.821Z,0.95
2023-02-03T19:18:47.562Z,1.11
2023-02-03T19:21:51.716Z,1.00
2023-02-03T19:24:55.839Z,0.53
2023-02-03T19:27:58.603Z,0.88
2023-02-03T19:31:13.199Z,0.96
2023-02-03T19:34:17.077Z,0.94
2023-02-03T19:37:19.776Z,1.29
2023-02-03T19:40:22.498Z,1.12
2023-02-03T19:43:25.288Z,1.19
2023-02-03T19:46:34.161Z,1.18
2023-02-03T19:49:36.796Z,1.24
2023-02-03T19:52:39.564Z,1.14
2023-02-03T19:55:46.307Z,1.25
2023-02-03T19:58:52.023Z,1.48
2023-02-03T20:01:56.586Z,1.42
2023-02-03T20:05:00.846Z,1.07
2023-02-03T20:08:04.894Z,1.09
2023-02-03T20:11:07.583Z,1.15
2023-02-03T20:14:11.261Z,1.21
2023-02-03T20:17:13.981Z,1.41
2023-02-03T20:20:19.203Z,1.24
2023-02-03T20:23:24.319Z,1.16
2023-02-03T20:26:26.919Z,1.29
2023-02-03T20:29:29.423Z,1.21
2023-02-03T20:32:32.219Z,1.22
2023-02-03T20:35:34.704Z,1.14
2023-02-03T20:38:37.893Z,1.17
2023-02-03T20:41:47.036Z,1.22
2023-02-03T20:44:50.277Z,1.13
2023-02-03T20:47:52.982Z,1.19
2023-02-03T20:50:55.795Z,1.27
2023-02-03T20:53:58.656Z,1.20
2023-02-03T20:57:02.243Z,1.29
2023-02-03T21:00:19.798Z,1.32
2023-02-03T21:03:41.807Z,1.35
2023-02-03T21:06:44.465Z,1.35
2023-02-03T21:09:47.147Z,1.29
2023-02-03T21:12:49.714Z,1.48
2023-02-03T21:15:55.032Z,1.25
2023-02-03T21:19:02.647Z,1.32
2023-02-03T21:22:18.049Z,1.36
2023-02-03T21:25:30.100Z,1.35
2023-02-03T21:28:32.766Z,1.39
2023-02-03T21:31:37.491Z,1.31
2023-02-03T21:34:43.011Z,1.06
2023-02-03T21:37:45.378Z,1.07
2023-02-03T21:40:47.906Z,1.12
2023-02-03T21:43:53.361Z,1.01
2023-02-03T21:46:56.336Z,1.05
2023-02-03T21:50:00.913Z,1.00
2023-02-03T21:53:10.054Z,1.13
2023-02-03T21:56:24.689Z,1.04
2023-02-03T21:59:36.851Z,0.92
2023-02-03T22:03:01.806Z,0.75
2023-02-03T22:06:18.661Z,0.68
2023-02-03T22:09:24.165Z,0.95
2023-02-03T22:12:26.538Z,0.80
2023-02-03T22:15:28.971Z,0.73
2023-02-03T22:18:31.794Z,0.59
2023-02-03T22:21:34.573Z,0.57
2023-02-03T22:24:36.982Z,0.70
2023-02-03T22:27:39.394Z,0.40
2023-02-03T22:30:41.994Z,0.17
2023-02-03T22:33:44.515Z,0.24
2023-02-03T22:36:46.888Z,0.24
2023-02-03T22:39:49.284Z,-0.04
2023-02-03T22:42:52.245Z,0.03
2023-02-03T22:45:55.070Z,0.27
2023-02-03T22:48:57.638Z,0.44
2023-02-03T22:52:00.111Z,0.63
2023-02-03T22:55:03.162Z,0.72
2023-02-03T22:58:07.054Z,0.52
2023-02-03T23:01:09.490Z,0.64
2023-02-03T23:04:12.142Z,0.45
2023-02-03T23:07:14.430Z,0.50
2023-02-03T23:10:20.507Z,0.13
2023-02-03T23:13:23.309Z,0.49
2023-02-03T23:16:25.704Z,-0.03
2023-02-03T23:19:28.612Z,-0.07
2023-02-03T23:22:31.069Z,-0.07
2023-02-03T23:25:33.463Z,-0.08
2023-02-03T23:28:35.881Z,0.02
2023-02-03T23:31:38.347Z,0.10
2023-02-03T23:35:15.769Z,0.11
2023-02-03T23:38:18.873Z,0.13
2023-02-03T23:41:21.233Z,0.34
2023-02-03T23:44:23.851Z,0.46
2023-02-03T23:47:26.266Z,0.38
2023-02-03T23:50:28.952Z,0.48
2023-02-03T23:53:31.772Z,0.43
2023-02-03T23:56:34.078Z,0.76
2023-02-03T23:59:37.549Z,0.75
